sensor_id;sensor_type;location;lat;lon;timestamp;P1;durP1;ratioP1;P2;durP2;ratioP2
261;SDS011;114;48.260;10.988;2022-10-31T00:01:23;21.90;;;5.90;;
261;SDS011;114;48.260;10.988;2022-10-31T00:03:48;12.10;;;5.53;;
261;SDS011;114;48.260;10.988;2022-10-31T00:06:15;14.60;;;5.00;;
261;SDS011;114;48.260;10.988;2022-10-31T00:08:43;9.13;;;5.00;;
261;SDS011;114;48.260;10.988;2022-10-31T00:11:12;14.87;;;6.80;;
261;SDS011;114;48.260;10.988;2022-10-31T00:13:38;12.23;;;5.70;;
261;SDS011;114;48.260;10.988;2022-10-31T00:16:04;13.83;;;5.70;;
261;SDS011;114;48.260;10.988;2022-10-31T00:18:37;6.53;;;5.20;;
261;SDS011;114;48.260;10.988;2022-10-31T00:21:03;10.93;;;4.13;;
261;SDS011;114;48.260;10.988;2022-10-31T00:23:29;5.63;;;3.80;;
261;SDS011;114;48.260;10.988;2022-10-31T00:25:59;9.30;;;4.50;;
261;SDS011;114;48.260;10.988;2022-10-31T00:28:29;7.23;;;4.70;;
261;SDS011;114;48.260;10.988;2022-10-31T00:31:02;5.73;;;4.40;;
261;SDS011;114;48.260;10.988;2022-10-31T00:33:29;10.40;;;4.17;;
261;SDS011;114;48.260;10.988;2022-10-31T00:35:55;10.23;;;4.40;;
261;SDS011;114;48.260;10.988;2022-10-31T00:38:21;9.83;;;4.53;;
261;SDS011;114;48.260;10.988;2022-10-31T00:40:47;11.20;;;4.83;;
261;SDS011;114;48.260;10.988;2022-10-31T00:43:13;8.20;;;4.90;;
261;SDS011;114;48.260;10.988;2022-10-31T00:45:38;13.53;;;4.47;;
261;SDS011;114;48.260;10.988;2022-10-31T00:48:04;8.70;;;4.73;;
261;SDS011;114;48.260;10.988;2022-10-31T00:50:30;5.20;;;4.70;;
261;SDS011;114;48.260;10.988;2022-10-31T00:52:56;8.40;;;5.10;;
261;SDS011;114;48.260;10.988;2022-10-31T00:55:23;10.33;;;5.77;;
261;SDS011;114;48.260;10.988;2022-10-31T00:57:48;9.60;;;5.20;;
261;SDS011;114;48.260;10.988;2022-10-31T01:00:14;12.77;;;4.50;;
261;SDS011;114;48.260;10.988;2022-10-31T01:02:40;9.73;;;5.93;;
261;SDS011;114;48.260;10.988;2022-10-31T01:05:06;10.80;;;5.80;;
261;SDS011;114;48.260;10.988;2022-10-31T01:07:35;11.70;;;4.93;;
261;SDS011;114;48.260;10.988;2022-10-31T01:10:01;9.70;;;5.70;;
261;SDS011;114;48.260;10.988;2022-10-31T01:12:27;16.97;;;4.67;;
261;SDS011;114;48.260;10.988;2022-10-31T01:14:52;6.23;;;4.43;;
261;SDS011;114;48.260;10.988;2022-10-31T01:17:18;7.50;;;4.87;;
261;SDS011;114;48.260;10.988;2022-10-31T01:19:44;15.50;;;5.23;;
261;SDS011;114;48.260;10.988;2022-10-31T01:22:10;8.70;;;4.37;;
261;SDS011;114;48.260;10.988;2022-10-31T01:24:36;4.03;;;3.63;;
261;SDS011;114;48.260;10.988;2022-10-31T01:27:02;5.73;;;4.37;;
261;SDS011;114;48.260;10.988;2022-10-31T01:29:28;11.03;;;5.10;;
261;SDS011;114;48.260;10.988;2022-10-31T01:31:53;11.17;;;4.67;;
261;SDS011;114;48.260;10.988;2022-10-31T01:34:19;8.40;;;5.23;;
261;SDS011;114;48.260;10.988;2022-10-31T01:36:45;8.30;;;4.53;;
261;SDS011;114;48.260;10.988;2022-10-31T01:39:16;12.47;;;5.60;;
261;SDS011;114;48.260;10.988;2022-10-31T01:41:43;11.03;;;5.00;;
261;SDS011;114;48.260;10.988;2022-10-31T01:46:41;5.03;;;3.77;;
261;SDS011;114;48.260;10.988;2022-10-31T01:49:17;5.67;;;4.10;;
261;SDS011;114;48.260;10.988;2022-10-31T01:51:56;17.50;;;4.33;;
261;SDS011;114;48.260;10.988;2022-10-31T01:54:29;8.33;;;5.50;;
261;SDS011;114;48.260;10.988;2022-10-31T01:56:59;14.10;;;4.97;;
261;SDS011;114;48.260;10.988;2022-10-31T01:59:28;11.13;;;5.70;;
261;SDS011;114;48.260;10.988;2022-10-31T02:01:57;7.57;;;5.80;;
261;SDS011;114;48.260;10.988;2022-10-31T02:04:23;10.77;;;5.50;;
261;SDS011;114;48.260;10.988;2022-10-31T02:07:01;8.67;;;6.00;;
261;SDS011;114;48.260;10.988;2022-10-31T02:09:33;10.23;;;4.73;;
261;SDS011;114;48.260;10.988;2022-10-31T02:12:00;9.33;;;5.40;;
261;SDS011;114;48.260;10.988;2022-10-31T02:14:27;7.10;;;5.27;;
261;SDS011;114;48.260;10.988;2022-10-31T02:16:54;7.63;;;4.50;;
261;SDS011;114;48.260;10.988;2022-10-31T02:38:23;13.50;;;4.83;;
261;SDS011;114;48.260;10.988;2022-10-31T02:40:56;8.03;;;5.43;;
261;SDS011;114;48.260;10.988;2022-10-31T02:52:00;12.70;;;4.60;;
261;SDS011;114;48.260;10.988;2022-10-31T02:54:26;14.83;;;4.87;;
261;SDS011;114;48.260;10.988;2022-10-31T02:56:54;6.10;;;3.93;;
261;SDS011;114;48.260;10.988;2022-10-31T02:59:25;13.40;;;4.40;;
261;SDS011;114;48.260;10.988;2022-10-31T03:04:30;8.83;;;5.40;;
261;SDS011;114;48.260;10.988;2022-10-31T03:07:03;9.80;;;4.27;;
261;SDS011;114;48.260;10.988;2022-10-31T03:15:44;11.23;;;4.00;;
261;SDS011;114;48.260;10.988;2022-10-31T03:18:15;5.37;;;4.10;;
261;SDS011;114;48.260;10.988;2022-10-31T03:23:40;7.67;;;4.90;;
261;SDS011;114;48.260;10.988;2022-10-31T03:26:08;7.27;;;5.83;;
261;SDS011;114;48.260;10.988;2022-10-31T03:28:59;8.63;;;4.27;;
261;SDS011;114;48.260;10.988;2022-10-31T03:31:28;14.07;;;3.90;;
261;SDS011;114;48.260;10.988;2022-10-31T03:33:59;10.30;;;7.50;;
261;SDS011;114;48.260;10.988;2022-10-31T03:36:27;14.73;;;6.63;;
261;SDS011;114;48.260;10.988;2022-10-31T03:38:56;7.70;;;5.80;;
261;SDS011;114;48.260;10.988;2022-10-31T03:41:27;8.63;;;4.70;;
261;SDS011;114;48.260;10.988;2022-10-31T03:43:57;10.10;;;5.03;;
261;SDS011;114;48.260;10.988;2022-10-31T03:46:26;5.77;;;4.67;;
261;SDS011;114;48.260;10.988;2022-10-31T03:48:52;9.97;;;4.57;;
261;SDS011;114;48.260;10.988;2022-10-31T03:51:26;5.43;;;4.20;;
261;SDS011;114;48.260;10.988;2022-10-31T03:54:19;13.00;;;4.50;;
261;SDS011;114;48.260;10.988;2022-10-31T03:56:53;10.67;;;4.30;;
261;SDS011;114;48.260;10.988;2022-10-31T03:59:36;7.93;;;4.93;;
261;SDS011;114;48.260;10.988;2022-10-31T04:02:08;5.93;;;5.07;;
261;SDS011;114;48.260;10.988;2022-10-31T04:04:40;17.30;;;6.20;;
261;SDS011;114;48.260;10.988;2022-10-31T04:07:09;8.50;;;5.40;;
261;SDS011;114;48.260;10.988;2022-10-31T04:09:37;7.30;;;5.20;;
261;SDS011;114;48.260;10.988;2022-10-31T04:12:06;10.77;;;5.00;;
261;SDS011;114;48.260;10.988;2022-10-31T04:14:36;9.33;;;5.13;;
261;SDS011;114;48.260;10.988;2022-10-31T04:17:05;7.30;;;4.40;;
261;SDS011;114;48.260;10.988;2022-10-31T04:19:35;5.77;;;4.33;;
261;SDS011;114;48.260;10.988;2022-10-31T04:22:01;4.27;;;3.90;;
261;SDS011;114;48.260;10.988;2022-10-31T04:24:27;6.07;;;4.47;;
261;SDS011;114;48.260;10.988;2022-10-31T04:26:52;9.33;;;4.27;;
261;SDS011;114;48.260;10.988;2022-10-31T04:29:18;9.97;;;4.70;;
261;SDS011;114;48.260;10.988;2022-10-31T04:31:44;4.17;;;3.80;;
261;SDS011;114;48.260;10.988;2022-10-31T04:34:09;4.03;;;3.30;;
261;SDS011;114;48.260;10.988;2022-10-31T04:36:35;3.70;;;3.30;;
261;SDS011;114;48.260;10.988;2022-10-31T04:39:01;3.70;;;3.40;;
261;SDS011;114;48.260;10.988;2022-10-31T04:41:26;5.23;;;3.37;;
261;SDS011;114;48.260;10.988;2022-10-31T04:43:52;5.53;;;3.67;;
261;SDS011;114;48.260;10.988;2022-10-31T04:46:18;5.90;;;3.87;;
261;SDS011;114;48.260;10.988;2022-10-31T04:48:43;3.10;;;2.90;;
261;SDS011;114;48.260;10.988;2022-10-31T04:51:09;5.93;;;4.23;;
261;SDS011;114;48.260;10.988;2022-10-31T04:53:36;7.70;;;3.73;;
261;SDS011;114;48.260;10.988;2022-10-31T04:56:02;4.63;;;3.27;;
261;SDS011;114;48.260;10.988;2022-10-31T04:58:28;8.73;;;3.70;;
261;SDS011;114;48.260;10.988;2022-10-31T05:00:54;5.23;;;3.63;;
261;SDS011;114;48.260;10.988;2022-10-31T05:03:20;4.80;;;3.40;;
261;SDS011;114;48.260;10.988;2022-10-31T05:05:46;5.27;;;3.43;;
261;SDS011;114;48.260;10.988;2022-10-31T05:08:12;5.90;;;3.43;;
261;SDS011;114;48.260;10.988;2022-10-31T05:10:39;15.77;;;4.00;;
261;SDS011;114;48.260;10.988;2022-10-31T05:13:05;4.80;;;4.13;;
261;SDS011;114;48.260;10.988;2022-10-31T05:15:31;6.73;;;3.63;;
261;SDS011;114;48.260;10.988;2022-10-31T05:17:56;7.87;;;4.17;;
261;SDS011;114;48.260;10.988;2022-10-31T05:20:24;3.60;;;3.30;;
261;SDS011;114;48.260;10.988;2022-10-31T05:22:53;5.23;;;4.03;;
261;SDS011;114;48.260;10.988;2022-10-31T05:25:20;9.83;;;4.73;;
261;SDS011;114;48.260;10.988;2022-10-31T05:27:48;7.90;;;4.60;;
261;SDS011;114;48.260;10.988;2022-10-31T05:30:16;9.00;;;3.60;;
261;SDS011;114;48.260;10.988;2022-10-31T05:32:53;6.47;;;3.77;;
261;SDS011;114;48.260;10.988;2022-10-31T05:35:20;35.30;;;4.10;;
261;SDS011;114;48.260;10.988;2022-10-31T05:37:51;7.17;;;3.07;;
261;SDS011;114;48.260;10.988;2022-10-31T05:40:18;6.40;;;3.40;;
261;SDS011;114;48.260;10.988;2022-10-31T05:42:44;5.77;;;2.77;;
261;SDS011;114;48.260;10.988;2022-10-31T05:45:12;3.17;;;2.97;;
261;SDS011;114;48.260;10.988;2022-10-31T05:47:39;8.50;;;3.30;;
261;SDS011;114;48.260;10.988;2022-10-31T05:50:05;4.30;;;3.90;;
261;SDS011;114;48.260;10.988;2022-10-31T05:52:31;6.70;;;3.90;;
261;SDS011;114;48.260;10.988;2022-10-31T05:54:57;10.80;;;3.30;;
261;SDS011;114;48.260;10.988;2022-10-31T05:57:23;2.97;;;2.40;;
261;SDS011;114;48.260;10.988;2022-10-31T05:59:49;3.53;;;2.87;;
261;SDS011;114;48.260;10.988;2022-10-31T06:02:17;2.63;;;2.43;;
261;SDS011;114;48.260;10.988;2022-10-31T06:04:44;4.23;;;2.40;;
261;SDS011;114;48.260;10.988;2022-10-31T06:07:09;5.43;;;3.63;;
261;SDS011;114;48.260;10.988;2022-10-31T06:09:35;4.10;;;3.10;;
261;SDS011;114;48.260;10.988;2022-10-31T06:12:00;2.80;;;2.23;;
261;SDS011;114;48.260;10.988;2022-10-31T06:14:26;3.10;;;2.90;;
261;SDS011;114;48.260;10.988;2022-10-31T06:16:53;3.23;;;2.00;;
261;SDS011;114;48.260;10.988;2022-10-31T06:19:19;6.37;;;3.10;;
261;SDS011;114;48.260;10.988;2022-10-31T06:21:45;11.40;;;2.17;;
261;SDS011;114;48.260;10.988;2022-10-31T06:24:10;3.90;;;2.87;;
261;SDS011;114;48.260;10.988;2022-10-31T06:26:36;5.57;;;2.57;;
261;SDS011;114;48.260;10.988;2022-10-31T06:29:02;8.60;;;2.50;;
261;SDS011;114;48.260;10.988;2022-10-31T06:31:28;2.90;;;2.70;;
261;SDS011;114;48.260;10.988;2022-10-31T06:33:53;3.57;;;2.33;;
261;SDS011;114;48.260;10.988;2022-10-31T06:36:19;2.83;;;2.10;;
261;SDS011;114;48.260;10.988;2022-10-31T06:38:52;2.50;;;2.30;;
261;SDS011;114;48.260;10.988;2022-10-31T06:41:17;8.50;;;2.53;;
261;SDS011;114;48.260;10.988;2022-10-31T06:43:45;3.33;;;2.73;;
261;SDS011;114;48.260;10.988;2022-10-31T06:46:12;6.60;;;2.40;;
261;SDS011;114;48.260;10.988;2022-10-31T06:48:37;8.83;;;3.60;;
261;SDS011;114;48.260;10.988;2022-10-31T06:51:05;5.57;;;3.30;;
261;SDS011;114;48.260;10.988;2022-10-31T06:53:30;6.80;;;3.67;;
261;SDS011;114;48.260;10.988;2022-10-31T06:55:56;6.23;;;3.60;;
261;SDS011;114;48.260;10.988;2022-10-31T06:58:22;9.43;;;3.70;;
261;SDS011;114;48.260;10.988;2022-10-31T07:00:47;5.40;;;3.00;;
261;SDS011;114;48.260;10.988;2022-10-31T07:03:13;5.50;;;3.67;;
261;SDS011;114;48.260;10.988;2022-10-31T07:05:40;12.07;;;3.07;;
261;SDS011;114;48.260;10.988;2022-10-31T07:08:08;4.33;;;2.93;;
261;SDS011;114;48.260;10.988;2022-10-31T07:10:38;2.97;;;2.63;;
261;SDS011;114;48.260;10.988;2022-10-31T07:13:05;7.57;;;3.30;;
261;SDS011;114;48.260;10.988;2022-10-31T07:15:35;16.20;;;2.70;;
261;SDS011;114;48.260;10.988;2022-10-31T07:18:02;3.57;;;3.00;;
261;SDS011;114;48.260;10.988;2022-10-31T07:20:29;6.43;;;3.17;;
261;SDS011;114;48.260;10.988;2022-10-31T07:22:55;3.33;;;2.93;;
261;SDS011;114;48.260;10.988;2022-10-31T07:25:21;5.63;;;3.30;;
261;SDS011;114;48.260;10.988;2022-10-31T07:27:48;5.37;;;2.93;;
261;SDS011;114;48.260;10.988;2022-10-31T07:30:14;6.93;;;3.97;;
261;SDS011;114;48.260;10.988;2022-10-31T07:32:41;8.13;;;3.60;;
261;SDS011;114;48.260;10.988;2022-10-31T07:35:08;8.60;;;3.10;;
261;SDS011;114;48.260;10.988;2022-10-31T07:37:36;9.73;;;3.60;;
261;SDS011;114;48.260;10.988;2022-10-31T07:40:02;15.67;;;4.50;;
261;SDS011;114;48.260;10.988;2022-10-31T07:42:33;10.17;;;4.30;;
261;SDS011;114;48.260;10.988;2022-10-31T07:45:00;10.13;;;4.20;;
261;SDS011;114;48.260;10.988;2022-10-31T07:47:26;4.20;;;3.60;;
261;SDS011;114;48.260;10.988;2022-10-31T07:49:52;6.40;;;4.40;;
261;SDS011;114;48.260;10.988;2022-10-31T07:52:17;9.13;;;4.37;;
261;SDS011;114;48.260;10.988;2022-10-31T07:54:43;11.10;;;4.67;;
261;SDS011;114;48.260;10.988;2022-10-31T07:57:09;6.27;;;3.70;;
261;SDS011;114;48.260;10.988;2022-10-31T07:59:34;9.13;;;4.47;;
261;SDS011;114;48.260;10.988;2022-10-31T08:02:00;9.37;;;4.17;;
261;SDS011;114;48.260;10.988;2022-10-31T08:04:26;17.97;;;4.27;;
261;SDS011;114;48.260;10.988;2022-10-31T08:06:51;9.33;;;4.63;;
261;SDS011;114;48.260;10.988;2022-10-31T08:09:17;6.70;;;3.70;;
261;SDS011;114;48.260;10.988;2022-10-31T08:11:43;10.43;;;4.37;;
261;SDS011;114;48.260;10.988;2022-10-31T08:14:08;10.93;;;4.80;;
261;SDS011;114;48.260;10.988;2022-10-31T08:16:34;8.43;;;3.90;;
261;SDS011;114;48.260;10.988;2022-10-31T08:19:00;13.77;;;4.67;;
261;SDS011;114;48.260;10.988;2022-10-31T08:21:25;9.30;;;4.40;;
261;SDS011;114;48.260;10.988;2022-10-31T08:23:51;10.73;;;3.60;;
261;SDS011;114;48.260;10.988;2022-10-31T08:26:17;7.00;;;4.50;;
261;SDS011;114;48.260;10.988;2022-10-31T08:28:42;8.10;;;4.53;;
261;SDS011;114;48.260;10.988;2022-10-31T08:31:08;11.67;;;4.53;;
261;SDS011;114;48.260;10.988;2022-10-31T08:33:35;13.33;;;4.37;;
261;SDS011;114;48.260;10.988;2022-10-31T08:36:01;11.33;;;4.40;;
261;SDS011;114;48.260;10.988;2022-10-31T08:38:26;13.93;;;4.57;;
261;SDS011;114;48.260;10.988;2022-10-31T08:40:52;10.97;;;4.60;;
261;SDS011;114;48.260;10.988;2022-10-31T08:43:18;10.20;;;4.67;;
261;SDS011;114;48.260;10.988;2022-10-31T08:45:44;9.67;;;3.83;;
261;SDS011;114;48.260;10.988;2022-10-31T08:48:15;13.27;;;4.80;;
261;SDS011;114;48.260;10.988;2022-10-31T08:50:42;16.87;;;4.40;;
261;SDS011;114;48.260;10.988;2022-10-31T08:53:10;11.80;;;5.67;;
261;SDS011;114;48.260;10.988;2022-10-31T08:55:38;15.63;;;6.83;;
261;SDS011;114;48.260;10.988;2022-10-31T08:58:06;10.53;;;5.37;;
261;SDS011;114;48.260;10.988;2022-10-31T09:00:34;12.97;;;5.17;;
261;SDS011;114;48.260;10.988;2022-10-31T09:03:01;9.23;;;4.60;;
261;SDS011;114;48.260;10.988;2022-10-31T09:05:38;14.70;;;5.63;;
261;SDS011;114;48.260;10.988;2022-10-31T09:08:04;13.20;;;6.03;;
261;SDS011;114;48.260;10.988;2022-10-31T09:10:32;15.03;;;6.57;;
261;SDS011;114;48.260;10.988;2022-10-31T09:12:59;12.67;;;6.87;;
261;SDS011;114;48.260;10.988;2022-10-31T09:15:33;28.93;;;7.33;;
261;SDS011;114;48.260;10.988;2022-10-31T09:18:00;15.80;;;7.30;;
261;SDS011;114;48.260;10.988;2022-10-31T09:20:26;11.63;;;7.20;;
261;SDS011;114;48.260;10.988;2022-10-31T09:22:56;17.43;;;7.70;;
261;SDS011;114;48.260;10.988;2022-10-31T09:25:27;19.67;;;7.63;;
261;SDS011;114;48.260;10.988;2022-10-31T09:27:57;21.30;;;6.70;;
261;SDS011;114;48.260;10.988;2022-10-31T09:30:28;21.73;;;7.33;;
261;SDS011;114;48.260;10.988;2022-10-31T09:32:56;14.40;;;6.80;;
261;SDS011;114;48.260;10.988;2022-10-31T09:35:26;21.40;;;7.30;;
261;SDS011;114;48.260;10.988;2022-10-31T09:37:55;15.57;;;6.20;;
261;SDS011;114;48.260;10.988;2022-10-31T09:40:30;14.90;;;7.83;;
261;SDS011;114;48.260;10.988;2022-10-31T09:43:12;17.17;;;7.30;;
261;SDS011;114;48.260;10.988;2022-10-31T09:45:56;25.60;;;7.70;;
261;SDS011;114;48.260;10.988;2022-10-31T09:50:58;32.83;;;7.70;;
261;SDS011;114;48.260;10.988;2022-10-31T09:53:55;32.23;;;8.03;;
261;SDS011;114;48.260;10.988;2022-10-31T09:56:31;15.67;;;7.37;;
261;SDS011;114;48.260;10.988;2022-10-31T09:59:01;14.30;;;7.23;;
261;SDS011;114;48.260;10.988;2022-10-31T10:10:14;16.67;;;8.10;;
261;SDS011;114;48.260;10.988;2022-10-31T10:16:00;15.03;;;7.67;;
261;SDS011;114;48.260;10.988;2022-10-31T10:21:43;25.30;;;8.00;;
261;SDS011;114;48.260;10.988;2022-10-31T10:24:24;12.87;;;7.20;;
261;SDS011;114;48.260;10.988;2022-10-31T10:27:03;15.03;;;6.27;;
261;SDS011;114;48.260;10.988;2022-10-31T10:29:54;19.57;;;7.87;;
261;SDS011;114;48.260;10.988;2022-10-31T10:32:29;15.23;;;8.00;;
261;SDS011;114;48.260;10.988;2022-10-31T10:35:02;27.83;;;9.03;;
261;SDS011;114;48.260;10.988;2022-10-31T10:37:46;15.00;;;9.10;;
261;SDS011;114;48.260;10.988;2022-10-31T10:40:16;19.53;;;9.50;;
261;SDS011;114;48.260;10.988;2022-10-31T10:42:44;22.23;;;9.40;;
261;SDS011;114;48.260;10.988;2022-10-31T10:48:40;17.03;;;8.00;;
261;SDS011;114;48.260;10.988;2022-10-31T10:51:16;17.43;;;8.20;;
261;SDS011;114;48.260;10.988;2022-10-31T10:53:58;17.40;;;8.03;;
261;SDS011;114;48.260;10.988;2022-10-31T10:59:16;39.80;;;8.30;;
261;SDS011;114;48.260;10.988;2022-10-31T11:01:45;21.97;;;10.27;;
261;SDS011;114;48.260;10.988;2022-10-31T11:04:35;26.57;;;9.37;;
261;SDS011;114;48.260;10.988;2022-10-31T11:07:05;16.33;;;8.37;;
261;SDS011;114;48.260;10.988;2022-10-31T11:09:34;17.73;;;9.60;;
261;SDS011;114;48.260;10.988;2022-10-31T11:12:05;31.80;;;9.30;;
261;SDS011;114;48.260;10.988;2022-10-31T11:14:48;15.37;;;8.00;;
261;SDS011;114;48.260;10.988;2022-10-31T11:17:31;29.33;;;10.37;;
261;SDS011;114;48.260;10.988;2022-10-31T11:20:05;36.33;;;9.33;;
261;SDS011;114;48.260;10.988;2022-10-31T11:22:38;27.50;;;9.67;;
261;SDS011;114;48.260;10.988;2022-10-31T11:27:58;23.20;;;9.70;;
261;SDS011;114;48.260;10.988;2022-10-31T11:30:28;19.80;;;9.30;;
261;SDS011;114;48.260;10.988;2022-10-31T11:32:55;26.07;;;10.43;;
261;SDS011;114;48.260;10.988;2022-10-31T11:35:23;18.57;;;9.83;;
261;SDS011;114;48.260;10.988;2022-10-31T11:37:49;21.60;;;10.50;;
261;SDS011;114;48.260;10.988;2022-10-31T11:40:18;19.70;;;11.03;;
261;SDS011;114;48.260;10.988;2022-10-31T11:42:46;19.37;;;10.10;;
261;SDS011;114;48.260;10.988;2022-10-31T11:45:17;25.83;;;10.13;;
261;SDS011;114;48.260;10.988;2022-10-31T11:47:46;18.77;;;9.80;;
261;SDS011;114;48.260;10.988;2022-10-31T11:50:23;26.63;;;11.23;;
261;SDS011;114;48.260;10.988;2022-10-31T11:52:52;26.07;;;10.70;;
261;SDS011;114;48.260;10.988;2022-10-31T11:55:35;29.03;;;10.60;;
261;SDS011;114;48.260;10.988;2022-10-31T11:58:03;22.57;;;10.10;;
261;SDS011;114;48.260;10.988;2022-10-31T12:00:30;23.90;;;10.80;;
261;SDS011;114;48.260;10.988;2022-10-31T12:08:41;39.23;;;10.13;;
261;SDS011;114;48.260;10.988;2022-10-31T12:11:21;23.10;;;10.43;;
261;SDS011;114;48.260;10.988;2022-10-31T12:30:40;18.30;;;9.33;;
261;SDS011;114;48.260;10.988;2022-10-31T12:33:12;16.03;;;9.33;;
261;SDS011;114;48.260;10.988;2022-10-31T12:35:43;20.27;;;10.40;;
261;SDS011;114;48.260;10.988;2022-10-31T12:44:06;19.67;;;8.10;;
261;SDS011;114;48.260;10.988;2022-10-31T12:53:30;24.70;;;10.13;;
261;SDS011;114;48.260;10.988;2022-10-31T12:55:31;15.53;;;9.53;;
261;SDS011;114;48.260;10.988;2022-10-31T13:00:53;15.10;;;10.50;;
261;SDS011;114;48.260;10.988;2022-10-31T13:06:32;17.40;;;11.00;;
261;SDS011;114;48.260;10.988;2022-10-31T13:09:09;17.20;;;10.47;;
261;SDS011;114;48.260;10.988;2022-10-31T13:11:48;18.47;;;11.20;;
261;SDS011;114;48.260;10.988;2022-10-31T13:14:25;20.13;;;11.87;;
261;SDS011;114;48.260;10.988;2022-10-31T13:16:55;20.60;;;12.60;;
261;SDS011;114;48.260;10.988;2022-10-31T13:19:23;23.70;;;12.17;;
261;SDS011;114;48.260;10.988;2022-10-31T13:24:23;30.07;;;10.60;;
261;SDS011;114;48.260;10.988;2022-10-31T13:27:01;20.87;;;10.43;;
261;SDS011;114;48.260;10.988;2022-10-31T13:29:39;23.37;;;11.27;;
261;SDS011;114;48.260;10.988;2022-10-31T13:32:09;15.47;;;11.00;;
261;SDS011;114;48.260;10.988;2022-10-31T13:34:44;21.33;;;11.10;;
261;SDS011;114;48.260;10.988;2022-10-31T13:37:20;23.17;;;10.80;;
261;SDS011;114;48.260;10.988;2022-10-31T13:45:24;26.47;;;10.83;;
261;SDS011;114;48.260;10.988;2022-10-31T13:48:00;21.20;;;11.13;;
261;SDS011;114;48.260;10.988;2022-10-31T13:50:54;18.60;;;10.47;;
261;SDS011;114;48.260;10.988;2022-10-31T13:53:22;17.90;;;10.90;;
261;SDS011;114;48.260;10.988;2022-10-31T14:02:01;15.07;;;11.93;;
261;SDS011;114;48.260;10.988;2022-10-31T14:04:37;22.83;;;12.90;;
261;SDS011;114;48.260;10.988;2022-10-31T14:07:13;29.73;;;19.90;;
261;SDS011;114;48.260;10.988;2022-10-31T14:09:49;18.17;;;13.43;;
261;SDS011;114;48.260;10.988;2022-10-31T14:17:58;21.90;;;13.90;;
261;SDS011;114;48.260;10.988;2022-10-31T14:20:40;20.40;;;13.23;;
261;SDS011;114;48.260;10.988;2022-10-31T14:26:33;23.97;;;13.80;;
261;SDS011;114;48.260;10.988;2022-10-31T14:28:51;21.90;;;13.27;;
261;SDS011;114;48.260;10.988;2022-10-31T14:39:51;26.33;;;15.33;;
261;SDS011;114;48.260;10.988;2022-10-31T14:45:47;15.63;;;13.30;;
261;SDS011;114;48.260;10.988;2022-10-31T14:48:29;18.63;;;13.50;;
261;SDS011;114;48.260;10.988;2022-10-31T14:50:57;23.63;;;13.03;;
261;SDS011;114;48.260;10.988;2022-10-31T14:55:58;23.47;;;14.80;;
261;SDS011;114;48.260;10.988;2022-10-31T14:58:31;20.30;;;13.40;;
261;SDS011;114;48.260;10.988;2022-10-31T15:01:15;23.03;;;13.50;;
261;SDS011;114;48.260;10.988;2022-10-31T15:03:53;23.13;;;16.03;;
261;SDS011;114;48.260;10.988;2022-10-31T15:06:23;15.90;;;13.13;;
261;SDS011;114;48.260;10.988;2022-10-31T15:08:51;19.83;;;14.03;;
261;SDS011;114;48.260;10.988;2022-10-31T15:11:23;19.20;;;13.73;;
261;SDS011;114;48.260;10.988;2022-10-31T15:13:51;15.43;;;13.80;;
261;SDS011;114;48.260;10.988;2022-10-31T15:16:26;15.53;;;13.80;;
261;SDS011;114;48.260;10.988;2022-10-31T15:19:02;15.73;;;13.90;;
261;SDS011;114;48.260;10.988;2022-10-31T15:21:34;23.50;;;14.17;;
261;SDS011;114;48.260;10.988;2022-10-31T15:24:05;21.67;;;13.73;;
261;SDS011;114;48.260;10.988;2022-10-31T15:26:40;19.43;;;14.23;;
261;SDS011;114;48.260;10.988;2022-10-31T15:29:13;21.60;;;14.00;;
261;SDS011;114;48.260;10.988;2022-10-31T15:34:44;19.47;;;15.33;;
261;SDS011;114;48.260;10.988;2022-10-31T15:37:11;20.70;;;14.37;;
261;SDS011;114;48.260;10.988;2022-10-31T15:39:38;23.83;;;16.03;;
261;SDS011;114;48.260;10.988;2022-10-31T15:42:04;21.10;;;15.57;;
261;SDS011;114;48.260;10.988;2022-10-31T15:44:40;22.97;;;15.83;;
261;SDS011;114;48.260;10.988;2022-10-31T15:47:13;22.77;;;17.47;;
261;SDS011;114;48.260;10.988;2022-10-31T15:49:43;21.10;;;15.27;;
261;SDS011;114;48.260;10.988;2022-10-31T15:52:39;17.57;;;15.77;;
261;SDS011;114;48.260;10.988;2022-10-31T15:55:15;21.73;;;16.07;;
261;SDS011;114;48.260;10.988;2022-10-31T15:57:47;25.00;;;16.77;;
261;SDS011;114;48.260;10.988;2022-10-31T16:00:48;20.33;;;16.30;;
261;SDS011;114;48.260;10.988;2022-10-31T16:05:43;20.20;;;17.33;;
261;SDS011;114;48.260;10.988;2022-10-31T16:11:15;21.90;;;17.30;;
261;SDS011;114;48.260;10.988;2022-10-31T16:16:41;32.63;;;23.23;;
261;SDS011;114;48.260;10.988;2022-10-31T16:19:14;25.53;;;20.13;;
261;SDS011;114;48.260;10.988;2022-10-31T16:21:44;30.40;;;22.73;;
261;SDS011;114;48.260;10.988;2022-10-31T16:26:48;24.17;;;18.47;;
261;SDS011;114;48.260;10.988;2022-10-31T16:29:49;24.83;;;19.57;;
261;SDS011;114;48.260;10.988;2022-10-31T16:37:24;23.70;;;19.43;;
261;SDS011;114;48.260;10.988;2022-10-31T16:39:49;26.83;;;21.60;;
261;SDS011;114;48.260;10.988;2022-10-31T16:42:15;34.40;;;23.07;;
261;SDS011;114;48.260;10.988;2022-10-31T16:44:41;27.63;;;22.60;;
261;SDS011;114;48.260;10.988;2022-10-31T16:47:13;26.37;;;22.07;;
261;SDS011;114;48.260;10.988;2022-10-31T16:49:41;38.23;;;21.93;;
261;SDS011;114;48.260;10.988;2022-10-31T16:52:07;30.20;;;23.80;;
261;SDS011;114;48.260;10.988;2022-10-31T16:54:33;34.73;;;25.53;;
261;SDS011;114;48.260;10.988;2022-10-31T16:56:59;29.40;;;24.10;;
261;SDS011;114;48.260;10.988;2022-10-31T16:59:26;30.90;;;24.67;;
261;SDS011;114;48.260;10.988;2022-10-31T17:01:52;40.33;;;24.83;;
261;SDS011;114;48.260;10.988;2022-10-31T17:04:18;32.90;;;24.30;;
261;SDS011;114;48.260;10.988;2022-10-31T17:06:44;27.77;;;22.07;;
261;SDS011;114;48.260;10.988;2022-10-31T17:09:10;28.93;;;22.77;;
261;SDS011;114;48.260;10.988;2022-10-31T17:11:36;32.37;;;21.40;;
261;SDS011;114;48.260;10.988;2022-10-31T17:14:07;27.27;;;22.13;;
261;SDS011;114;48.260;10.988;2022-10-31T17:16:36;29.73;;;23.50;;
261;SDS011;114;48.260;10.988;2022-10-31T17:19:02;35.20;;;24.97;;
261;SDS011;114;48.260;10.988;2022-10-31T17:21:28;30.50;;;22.17;;
261;SDS011;114;48.260;10.988;2022-10-31T17:23:55;29.13;;;23.57;;
261;SDS011;114;48.260;10.988;2022-10-31T17:26:21;25.80;;;20.53;;
261;SDS011;114;48.260;10.988;2022-10-31T17:28:47;27.67;;;19.23;;
261;SDS011;114;48.260;10.988;2022-10-31T17:31:21;23.03;;;20.20;;
261;SDS011;114;48.260;10.988;2022-10-31T17:33:49;26.10;;;19.67;;
261;SDS011;114;48.260;10.988;2022-10-31T17:36:15;32.13;;;20.23;;
261;SDS011;114;48.260;10.988;2022-10-31T17:38:41;29.10;;;21.73;;
261;SDS011;114;48.260;10.988;2022-10-31T17:41:07;50.90;;;33.10;;
261;SDS011;114;48.260;10.988;2022-10-31T17:43:33;39.63;;;28.10;;
261;SDS011;114;48.260;10.988;2022-10-31T17:45:59;36.40;;;26.43;;
261;SDS011;114;48.260;10.988;2022-10-31T17:48:28;63.80;;;42.73;;
261;SDS011;114;48.260;10.988;2022-10-31T17:50:54;50.03;;;33.47;;
261;SDS011;114;48.260;10.988;2022-10-31T17:53:23;45.13;;;29.93;;
261;SDS011;114;48.260;10.988;2022-10-31T17:55:49;38.13;;;30.03;;
261;SDS011;114;48.260;10.988;2022-10-31T17:58:14;56.63;;;33.93;;
261;SDS011;114;48.260;10.988;2022-10-31T18:00:40;43.90;;;30.70;;
261;SDS011;114;48.260;10.988;2022-10-31T18:03:06;51.50;;;34.33;;
261;SDS011;114;48.260;10.988;2022-10-31T18:05:34;49.23;;;40.10;;
261;SDS011;114;48.260;10.988;2022-10-31T18:08:00;63.87;;;42.50;;
261;SDS011;114;48.260;10.988;2022-10-31T18:10:25;50.77;;;37.43;;
261;SDS011;114;48.260;10.988;2022-10-31T18:12:51;81.33;;;55.27;;
261;SDS011;114;48.260;10.988;2022-10-31T18:15:17;62.50;;;43.60;;
261;SDS011;114;48.260;10.988;2022-10-31T18:17:44;53.83;;;34.10;;